MAPA DE AEROPUERTO

INFORMACIÓN METAR y TAF

METAR FOR LEST
ADDS - METARS form results

(2037 UTC 18 May 2021)
Data provider http://aviationweather.gov/metar/data/
 
METAR text: LEST 182030Z 36004KT 9999 FEW018 11/07 Q1026 NOSIG
Conditions at: LEST (SANTIAGO/LABACOL, ES) observed 2030 UTC 18 May 2021
Temperature: 11.0°C (52°F)
Dewpoint: 7.0°C (45°F) [RH = 76%]
Pressure (altimeter): 30.30 inches Hg (1026.0 mb)
Winds: from the N (360 degrees) at 5 MPH (4 knots; 2.1 m/s)
Visibility: 6 or more miles (10+ km)
Ceiling: at least 12,000 feet AGL
Clouds: few clouds at 1800 feet AGL
Weather: no significant weather observed at this time

METAR text: LEST 182000Z VRB02KT 9999 FEW023 11/07 Q1026 NOSIG
Conditions at: LEST (SANTIAGO/LABACOL, ES) observed 2000 UTC 18 May 2021
Temperature: 11.0°C (52°F)
Dewpoint: 7.0°C (45°F) [RH = 76%]
Pressure (altimeter): 30.30 inches Hg (1026.0 mb)
Winds: variable direction winds at 2 MPH (2 knots; 1.0 m/s)
Visibility: 6 or more miles (10+ km)
Ceiling: at least 12,000 feet AGL
Clouds: few clouds at 2300 feet AGL
Weather: no significant weather observed at this time

Forecast for: LEST (SANTIAGO/LABACOL, ES)
Text: TAF LEST 181700Z 1818/1918 01009KT 9999 SCT015 BKN025 TX17/1916Z TN08/1905Z
Forecast period: 1800 UTC 18 May 2021 to 1800 UTC 19 May 2021
Forecast type: FROM: standard forecast or significant change
Winds: from the N (10 degrees) at 10 MPH (9 knots; 4.6 m/s)
Visibility: 6 or more miles (10+ km)
Ceiling: 2500 feet AGL
Clouds: scattered clouds at 1500 feet AGL
broken clouds at 2500 feet AGL
Weather: no significant weather forecast for this period
Text: TEMPO 1900/1908 3000 BCFG
Forecast period: 0000 to 0800 UTC 19 May 2021
Forecast type: TEMPORARY: The following changes expected for less than half the time period
Visibility: 1.86 miles (2.99 km)
Ceiling: unknown
Clouds: missing
Weather: BCFG  (patches of fog)
Text: PROB40
Forecast period: 0000 to 0800 UTC 19 May 2021
Forecast type: TEMPORARY: The following changes expected for less than half the time period
Visibility: 0.50 miles (0.80 km)
Ceiling: 200 feet AGL
Clouds: broken clouds at 200 feet AGL
Weather: FG  (fog)